Time;durP1;ratioP1;P1;durP2;ratioP2;P2;SDS_P1;SDS_P2;PMS_P1;PMS_P2;Temp;Humidity;BMP_temperature;BMP_pressure;BME280_temperature;BME280_humidity;BME280_pressure;Samples;Min_cycle;Max_cycle;Signal;HPM_P1;HPM_P2
2021/05/17 00:01:07;;;;;;;4.57;1.58;;;;;;;;;;6809500;29;20597;-82
2021/05/17 00:04:34;;;;;;;4.97;1.70;;;;;;;;;;6809365;29;20122;-82
2021/05/17 00:07:55;;;;;;;2.80;1.52;;;;;;;;;;6807080;29;20044;-82
2021/05/17 00:11:15;;;;;;;3.28;1.88;;;;;;;;;;6809537;29;20034;-82
2021/05/17 00:14:37;;;;;;;5.47;1.73;;;;;;;;;;6808691;29;20082;-83
2021/05/17 00:17:57;;;;;;;3.70;1.48;;;;;;;;;;6798030;29;20032;-83
2021/05/17 00:21:18;;;;;;;4.55;1.83;;;;;;;;;;6816596;29;20047;-83
2021/05/17 00:24:39;;;;;;;2.95;1.65;;;;;;;;;;6827738;29;20043;-83
2021/05/17 00:27:59;;;;;;;3.42;1.67;;;;;;;;;;6814428;29;20067;-84
2021/05/17 00:35:11;;;;;;;3.97;1.65;;;;;;;;;;7401960;23;20052;-83
2021/05/17 00:38:32;;;;;;;2.83;1.60;;;;;;;;;;6765792;29;20032;-83
2021/05/17 00:41:53;;;;;;;3.83;1.40;;;;;;;;;;6777031;29;20038;-82
2021/05/17 00:45:15;;;;;;;1.48;1.38;;;;;;;;;;6770376;29;20032;-83
2021/05/17 00:48:37;;;;;;;3.58;1.58;;;;;;;;;;6773849;29;20543;-84
2021/05/17 00:51:58;;;;;;;2.50;1.33;;;;;;;;;;6770330;29;20036;-83
2021/05/17 00:55:19;;;;;;;2.55;1.48;;;;;;;;;;6769706;29;20066;-82
2021/05/17 00:58:40;;;;;;;2.60;1.30;;;;;;;;;;6768423;29;20036;-82
2021/05/17 01:02:01;;;;;;;6.78;1.50;;;;;;;;;;6786944;29;20115;-80
2021/05/17 01:05:21;;;;;;;4.32;1.50;;;;;;;;;;6787446;29;20032;-81
2021/05/17 01:08:58;;;;;;;2.38;1.48;;;;;;;;;;6788377;29;20497;-81
2021/05/17 01:12:19;;;;;;;5.80;1.60;;;;;;;;;;6799267;29;20041;-81
2021/05/17 01:15:39;;;;;;;14.80;1.58;;;;;;;;;;6785199;29;20040;-81
2021/05/17 01:19:00;;;;;;;2.03;1.20;;;;;;;;;;6784776;29;20039;-81
2021/05/17 01:22:23;;;;;;;1.92;1.30;;;;;;;;;;6786291;29;20040;-81
2021/05/17 01:25:44;;;;;;;1.80;1.40;;;;;;;;;;6786135;29;20131;-81
2021/05/17 01:29:06;;;;;;;1.98;1.30;;;;;;;;;;6785298;29;20383;-81
2021/05/17 01:32:27;;;;;;;3.78;1.88;;;;;;;;;;6786060;29;20099;-81
2021/05/17 01:35:48;;;;;;;3.28;1.40;;;;;;;;;;6787483;29;20063;-82
2021/05/17 01:39:09;;;;;;;1.52;1.20;;;;;;;;;;6772839;29;20040;-81
2021/05/17 01:42:31;;;;;;;2.25;1.30;;;;;;;;;;6773610;29;20040;-82
2021/05/17 01:45:51;;;;;;;3.13;1.70;;;;;;;;;;6783944;29;20032;-81
2021/05/17 01:49:15;;;;;;;2.42;1.42;;;;;;;;;;6778480;29;20043;-81
2021/05/17 01:52:37;;;;;;;5.00;1.92;;;;;;;;;;6768344;29;20032;-82
2021/05/17 01:55:57;;;;;;;5.03;1.33;;;;;;;;;;6768837;29;20036;-81
2021/05/17 01:59:28;;;;;;;2.97;1.60;;;;;;;;;;6784878;29;20028;-81
2021/05/17 02:02:48;;;;;;;1.27;1.15;;;;;;;;;;6789671;29;20418;-81
2021/05/17 02:06:10;;;;;;;3.17;1.83;;;;;;;;;;6792909;29;20462;-81
2021/05/17 02:09:32;;;;;;;2.58;1.55;;;;;;;;;;6783122;29;20039;-81
2021/05/17 02:12:52;;;;;;;1.90;1.45;;;;;;;;;;6788770;29;20091;-81
2021/05/17 02:16:13;;;;;;;1.92;1.23;;;;;;;;;;6784808;29;20032;-81
2021/05/17 02:19:33;;;;;;;1.70;1.27;;;;;;;;;;6785175;29;20477;-81
2021/05/17 02:22:54;;;;;;;7.25;1.45;;;;;;;;;;6783240;29;20137;-81
2021/05/17 02:26:15;;;;;;;2.40;1.30;;;;;;;;;;6772434;29;20422;-81
2021/05/17 02:29:36;;;;;;;7.05;1.52;;;;;;;;;;6786697;29;20027;-81
2021/05/17 02:32:57;;;;;;;2.90;1.48;;;;;;;;;;6786065;29;20034;-81
2021/05/17 02:36:18;;;;;;;1.60;1.10;;;;;;;;;;6767169;29;20048;-81
2021/05/17 02:39:38;;;;;;;3.80;1.60;;;;;;;;;;6782661;29;20376;-81
2021/05/17 02:43:06;;;;;;;2.38;1.20;;;;;;;;;;6784474;29;20398;-81
2021/05/17 02:46:27;;;;;;;3.42;1.65;;;;;;;;;;6752195;29;20035;-81
2021/05/17 02:49:49;;;;;;;2.05;1.45;;;;;;;;;;6784330;29;20063;-81
2021/05/17 02:53:37;;;;;;;1.92;1.40;;;;;;;;;;6777411;29;20082;-81
2021/05/17 02:56:58;;;;;;;1.33;1.23;;;;;;;;;;6777053;29;20036;-82
2021/05/17 03:00:19;;;;;;;1.53;1.20;;;;;;;;;;6784331;29;20039;-82
2021/05/17 03:03:46;;;;;;;1.50;1.40;;;;;;;;;;6791903;29;20446;-82
2021/05/17 03:07:10;;;;;;;1.45;1.35;;;;;;;;;;6788184;29;20039;-82
2021/05/17 03:10:32;;;;;;;1.77;1.42;;;;;;;;;;6779744;29;20020;-81
2021/05/17 03:13:53;;;;;;;2.50;1.10;;;;;;;;;;6766445;29;20043;-81
2021/05/17 03:17:15;;;;;;;1.60;1.40;;;;;;;;;;6783728;29;20427;-82
2021/05/17 03:20:36;;;;;;;1.58;1.20;;;;;;;;;;6788509;29;20435;-81
2021/05/17 03:23:56;;;;;;;3.03;1.13;;;;;;;;;;6783028;29;20390;-81
2021/05/17 03:27:24;;;;;;;1.88;1.23;;;;;;;;;;6766882;29;20498;-82
2021/05/17 03:30:44;;;;;;;1.88;1.23;;;;;;;;;;6766371;29;20395;-82
2021/05/17 03:34:04;;;;;;;2.42;1.50;;;;;;;;;;6780986;29;20586;-84
2021/05/17 03:37:25;;;;;;;1.35;1.20;;;;;;;;;;6783984;29;20035;-84
2021/05/17 03:40:45;;;;;;;3.97;1.50;;;;;;;;;;6783648;29;20115;-85
2021/05/17 03:44:06;;;;;;;3.08;1.30;;;;;;;;;;6783448;29;20040;-82
2021/05/17 03:47:26;;;;;;;1.77;1.23;;;;;;;;;;6752308;29;20155;-82
2021/05/17 03:50:47;;;;;;;1.50;1.30;;;;;;;;;;6769945;29;20029;-82
2021/05/17 03:54:07;;;;;;;1.60;1.17;;;;;;;;;;6779966;29;20274;-81
2021/05/17 03:57:28;;;;;;;1.52;1.35;;;;;;;;;;6789503;29;20548;-82
2021/05/17 04:00:48;;;;;;;3.60;1.48;;;;;;;;;;6800749;29;20071;-81
2021/05/17 04:04:09;;;;;;;2.42;1.35;;;;;;;;;;6785911;29;20135;-79
2021/05/17 04:14:50;;;;;;;2.10;1.42;;;;;;;;;;6779962;29;20040;-79
2021/05/17 04:18:11;;;;;;;2.92;1.15;;;;;;;;;;6771739;29;20119;-79
2021/05/17 04:21:32;;;;;;;2.15;1.17;;;;;;;;;;6789161;29;20052;-79
2021/05/17 04:24:52;;;;;;;1.45;1.00;;;;;;;;;;6786391;29;20379;-81
2021/05/17 04:28:12;;;;;;;2.80;1.33;;;;;;;;;;6786799;29;20064;-78
2021/05/17 04:31:33;;;;;;;3.97;1.40;;;;;;;;;;6787401;29;20031;-79
2021/05/17 04:34:53;;;;;;;0.90;0.90;;;;;;;;;;6785117;29;20131;-79
2021/05/17 04:38:14;;;;;;;1.52;1.20;;;;;;;;;;6787343;29;20036;-78
2021/05/17 04:41:34;;;;;;;3.50;1.20;;;;;;;;;;6787749;29;20036;-78
2021/05/17 04:44:55;;;;;;;1.65;0.95;;;;;;;;;;6787432;29;20490;-78
2021/05/17 04:48:15;;;;;;;1.92;1.40;;;;;;;;;;6786855;29;20024;-79
2021/05/17 04:51:35;;;;;;;1.08;0.90;;;;;;;;;;6796850;29;20123;-80
2021/05/17 04:54:56;;;;;;;2.60;1.38;;;;;;;;;;6784777;29;20519;-79
2021/05/17 04:58:16;;;;;;;1.23;1.00;;;;;;;;;;6783362;29;20055;-79
2021/05/17 05:01:37;;;;;;;2.28;1.23;;;;;;;;;;6796235;29;20114;-79
2021/05/17 05:04:57;;;;;;;2.03;1.10;;;;;;;;;;6768695;29;20618;-80
2021/05/17 05:08:18;;;;;;;2.45;1.20;;;;;;;;;;6772446;29;20040;-78
2021/05/17 05:11:38;;;;;;;1.77;1.20;;;;;;;;;;6771676;29;20078;-78
2021/05/17 05:14:59;;;;;;;4.63;1.30;;;;;;;;;;6769102;29;20024;-78
2021/05/17 05:18:19;;;;;;;2.28;1.25;;;;;;;;;;6762071;29;20112;-78
2021/05/17 05:21:40;;;;;;;1.15;1.05;;;;;;;;;;6765945;29;20537;-78
2021/05/17 05:25:00;;;;;;;3.72;1.30;;;;;;;;;;6776388;29;20079;-76
2021/05/17 05:28:24;;;;;;;1.98;1.17;;;;;;;;;;6767906;29;20051;-78
2021/05/17 05:31:58;;;;;;;1.33;1.10;;;;;;;;;;6785110;29;20040;-77
2021/05/17 05:35:19;;;;;;;5.35;2.28;;;;;;;;;;6784758;29;20044;-78
2021/05/17 05:38:39;;;;;;;2.58;2.20;;;;;;;;;;6781221;29;20083;-78
2021/05/17 05:42:00;;;;;;;2.85;2.13;;;;;;;;;;6769528;29;20031;-77
2021/05/17 05:45:20;;;;;;;21.83;6.40;;;;;;;;;;6784718;29;20055;-77
2021/05/17 05:48:47;;;;;;;6.60;6.10;;;;;;;;;;6771796;29;20119;-77
2021/05/17 05:52:07;;;;;;;7.50;5.78;;;;;;;;;;6785277;29;20036;-76
2021/05/17 05:55:28;;;;;;;2.47;1.58;;;;;;;;;;6798279;29;20051;-76
2021/05/17 05:58:49;;;;;;;2.40;1.27;;;;;;;;;;6780855;29;20083;-76
2021/05/17 06:02:09;;;;;;;1.85;1.40;;;;;;;;;;6784960;29;20040;-77
2021/05/17 06:05:30;;;;;;;2.67;1.65;;;;;;;;;;6784523;29;20531;-77
2021/05/17 06:08:50;;;;;;;1.63;1.52;;;;;;;;;;6781313;29;20542;-77
2021/05/17 06:12:11;;;;;;;1.70;1.30;;;;;;;;;;6771652;29;20088;-79
2021/05/17 06:15:32;;;;;;;2.05;1.40;;;;;;;;;;6784163;29;20028;-78
2021/05/17 06:18:54;;;;;;;3.90;1.50;;;;;;;;;;6785281;29;20031;-81
2021/05/17 06:22:15;;;;;;;3.60;1.70;;;;;;;;;;6778515;29;20039;-81
2021/05/17 06:25:36;;;;;;;5.18;1.35;;;;;;;;;;6782288;29;20040;-81
2021/05/17 06:28:56;;;;;;;2.83;1.50;;;;;;;;;;6765871;29;20024;-81
2021/05/17 06:32:17;;;;;;;3.20;1.58;;;;;;;;;;6783577;29;20451;-81
2021/05/17 06:35:50;;;;;;;6.43;1.60;;;;;;;;;;6781213;29;20048;-81
2021/05/17 06:39:12;;;;;;;4.03;1.85;;;;;;;;;;6775478;29;20091;-82
2021/05/17 06:42:33;;;;;;;3.13;1.70;;;;;;;;;;6783723;29;20056;-81
2021/05/17 06:45:54;;;;;;;3.63;1.77;;;;;;;;;;6781492;29;20036;-81
2021/05/17 06:49:14;;;;;;;5.55;1.63;;;;;;;;;;6776826;29;20064;-80
2021/05/17 06:52:35;;;;;;;3.33;1.73;;;;;;;;;;6782692;29;20386;-81
2021/05/17 06:56:01;;;;;;;3.35;1.50;;;;;;;;;;6780908;29;20433;-80
2021/05/17 06:59:23;;;;;;;3.22;2.00;;;;;;;;;;6778050;29;20032;-80
2021/05/17 07:02:45;;;;;;;2.47;1.35;;;;;;;;;;6781233;29;20036;-80
2021/05/17 07:06:09;;;;;;;2.90;1.60;;;;;;;;;;6781574;29;20051;-78
2021/05/17 07:13:09;;;;;;;2.83;1.77;;;;;;;;;;6769030;29;20089;-78
2021/05/17 07:16:30;;;;;;;11.40;1.77;;;;;;;;;;6757327;29;20432;-84
2021/05/17 07:19:50;;;;;;;2.03;1.10;;;;;;;;;;6775546;29;20051;-85
2021/05/17 07:26:56;;;;;;;5.38;1.05;;;;;;;;;;6776861;29;20043;-83
2021/05/17 07:30:17;;;;;;;14.80;1.80;;;;;;;;;;6780352;29;20039;-82
2021/05/17 07:33:38;;;;;;;5.35;1.08;;;;;;;;;;6763323;29;20055;-80
2021/05/17 07:36:59;;;;;;;3.28;1.35;;;;;;;;;;6784129;29;20032;-79
2021/05/17 07:40:19;;;;;;;12.10;1.80;;;;;;;;;;6784252;29;20137;-80
2021/05/17 07:43:40;;;;;;;2.75;1.60;;;;;;;;;;6780018;29;20460;-80
2021/05/17 07:47:00;;;;;;;2.63;1.40;;;;;;;;;;6781908;29;20028;-80
2021/05/17 07:50:21;;;;;;;6.45;1.40;;;;;;;;;;6779444;29;20040;-81
2021/05/17 07:53:41;;;;;;;2.90;1.42;;;;;;;;;;6761635;29;20025;-82
2021/05/17 07:57:04;;;;;;;3.92;1.20;;;;;;;;;;6777478;29;20115;-82
2021/05/17 08:00:24;;;;;;;1.60;1.02;;;;;;;;;;6778180;29;20059;-81
2021/05/17 08:03:45;;;;;;;1.70;1.20;;;;;;;;;;6766517;29;20040;-79
2021/05/17 08:07:05;;;;;;;2.58;1.13;;;;;;;;;;6792252;29;20390;-80
2021/05/17 08:10:26;;;;;;;1.20;1.00;;;;;;;;;;6764715;29;20040;-80
2021/05/17 08:13:47;;;;;;;4.65;1.40;;;;;;;;;;6764587;29;20055;-80
2021/05/17 08:17:07;;;;;;;1.98;1.35;;;;;;;;;;6782621;29;20348;-80
2021/05/17 08:20:29;;;;;;;1.33;0.90;;;;;;;;;;6766623;29;20039;-81
2021/05/17 08:23:52;;;;;;;2.50;1.00;;;;;;;;;;6781964;29;20475;-82
2021/05/17 08:27:12;;;;;;;3.22;0.90;;;;;;;;;;6768852;29;20059;-82
2021/05/17 08:30:41;;;;;;;4.80;1.00;;;;;;;;;;6782351;29;20032;-83
2021/05/17 08:34:01;;;;;;;2.90;1.13;;;;;;;;;;6783729;29;20534;-81
2021/05/17 08:37:22;;;;;;;0.90;0.90;;;;;;;;;;6764577;29;20028;-82
2021/05/17 08:40:44;;;;;;;1.63;0.95;;;;;;;;;;6768844;29;20039;-82
2021/05/17 08:44:05;;;;;;;2.92;1.15;;;;;;;;;;6787253;29;20051;-84
2021/05/17 08:47:25;;;;;;;8.32;1.20;;;;;;;;;;6787818;29;20036;-87
2021/05/17 08:50:45;;;;;;;4.00;1.10;;;;;;;;;;6787414;29;20081;-84
2021/05/17 08:54:07;;;;;;;8.10;1.30;;;;;;;;;;6785798;29;20057;-82
2021/05/17 08:57:28;;;;;;;3.45;1.10;;;;;;;;;;6785784;29;20035;-84
2021/05/17 09:00:48;;;;;;;4.65;1.17;;;;;;;;;;6792010;29;20100;-84
2021/05/17 09:04:15;;;;;;;5.53;1.10;;;;;;;;;;6789161;29;20100;-85
2021/05/17 09:07:52;;;;;;;2.90;1.05;;;;;;;;;;6770946;29;20042;-85
2021/05/17 09:11:28;;;;;;;2.47;1.20;;;;;;;;;;6774316;29;20028;-86
2021/05/17 09:14:55;;;;;;;1.80;0.98;;;;;;;;;;6785955;29;20043;-86
2021/05/17 09:18:28;;;;;;;1.13;1.02;;;;;;;;;;6771809;29;20038;-87
2021/05/17 09:22:00;;;;;;;1.15;0.95;;;;;;;;;;6774979;29;20495;-87
2021/05/17 09:25:21;;;;;;;3.55;1.27;;;;;;;;;;6787618;29;20123;-86
2021/05/17 09:28:45;;;;;;;2.65;0.98;;;;;;;;;;6771854;29;20029;-88
2021/05/17 09:32:16;;;;;;;5.18;1.10;;;;;;;;;;6786370;29;20036;-87
2021/05/17 09:35:36;;;;;;;2.15;0.88;;;;;;;;;;6784498;29;20075;-86
2021/05/17 09:38:57;;;;;;;0.90;0.88;;;;;;;;;;6773083;29;20039;-84
2021/05/17 09:42:24;;;;;;;2.63;0.88;;;;;;;;;;6774438;29;20054;-83
2021/05/17 09:45:46;;;;;;;1.63;1.10;;;;;;;;;;6786744;29;20032;-84
2021/05/17 09:49:07;;;;;;;5.07;1.20;;;;;;;;;;6792900;29;20111;-85
2021/05/17 09:52:29;;;;;;;2.20;1.00;;;;;;;;;;6784665;29;20024;-85
2021/05/17 09:55:49;;;;;;;3.40;1.00;;;;;;;;;;6787876;29;20509;-82
2021/05/17 09:59:10;;;;;;;1.77;0.98;;;;;;;;;;6784874;29;20036;-82
2021/05/17 10:02:34;;;;;;;2.55;0.98;;;;;;;;;;6780618;29;20032;-83
2021/05/17 10:05:57;;;;;;;1.58;0.85;;;;;;;;;;6798752;29;20060;-82
2021/05/17 10:09:17;;;;;;;0.90;0.68;;;;;;;;;;6785500;29;20382;-82
2021/05/17 10:12:38;;;;;;;1.40;0.80;;;;;;;;;;6786348;29;20486;-81
2021/05/17 10:16:08;;;;;;;2.88;1.00;;;;;;;;;;6784654;29;20036;-83
2021/05/17 10:19:29;;;;;;;3.92;1.00;;;;;;;;;;6783102;29;20028;-82
2021/05/17 10:22:51;;;;;;;2.60;1.00;;;;;;;;;;6784738;29;20088;-81
2021/05/17 10:26:15;;;;;;;0.73;0.73;;;;;;;;;;6769101;29;20119;-85
2021/05/17 10:29:38;;;;;;;5.43;1.35;;;;;;;;;;6785614;29;20039;-82
2021/05/17 10:33:07;;;;;;;0.70;0.70;;;;;;;;;;6768076;29;20059;-82
2021/05/17 10:36:57;;;;;;;1.25;0.70;;;;;;;;;;6785444;29;20048;-81
2021/05/17 10:40:39;;;;;;;1.40;0.80;;;;;;;;;;6786165;29;20115;-83
2021/05/17 10:47:28;;;;;;;0.90;0.80;;;;;;;;;;6785080;29;20052;-85
2021/05/17 10:50:51;;;;;;;1.33;0.90;;;;;;;;;;6776525;29;20036;-85
2021/05/17 10:54:22;;;;;;;1.67;0.90;;;;;;;;;;6769188;29;20039;-85
2021/05/17 10:58:07;;;;;;;6.60;1.13;;;;;;;;;;6766035;29;20039;-85
2021/05/17 11:01:28;;;;;;;2.15;1.10;;;;;;;;;;6777006;29;20024;-85
2021/05/17 11:04:48;;;;;;;3.75;1.02;;;;;;;;;;6761743;29;20071;-86
2021/05/17 11:08:10;;;;;;;2.85;0.95;;;;;;;;;;6770413;29;20103;-86
2021/05/17 11:11:30;;;;;;;3.42;0.80;;;;;;;;;;6782087;29;20044;-86
2021/05/17 11:15:10;;;;;;;2.28;0.82;;;;;;;;;;6771618;29;20043;-85
2021/05/17 11:18:38;;;;;;;2.15;1.15;;;;;;;;;;6771302;29;20035;-85
2021/05/17 11:21:58;;;;;;;2.17;1.10;;;;;;;;;;6782089;29;20075;-86
2021/05/17 11:25:19;;;;;;;3.70;1.10;;;;;;;;;;6783727;29;20043;-87
2021/05/17 11:28:39;;;;;;;5.07;1.60;;;;;;;;;;6780489;29;20477;-84
2021/05/17 11:32:12;;;;;;;1.60;1.10;;;;;;;;;;6783398;29;20039;-86
2021/05/17 11:35:32;;;;;;;1.42;0.90;;;;;;;;;;6764957;29;20044;-85
2021/05/17 11:39:10;;;;;;;14.35;1.13;;;;;;;;;;6781940;29;20075;-84
2021/05/17 11:42:35;;;;;;;2.83;1.15;;;;;;;;;;6777436;29;20024;-83
2021/05/17 11:45:57;;;;;;;10.02;1.67;;;;;;;;;;6782773;29;20040;-85
2021/05/17 11:49:20;;;;;;;5.32;1.33;;;;;;;;;;6782826;29;20032;-85
2021/05/17 11:52:46;;;;;;;5.30;1.17;;;;;;;;;;6765946;29;20043;-85
2021/05/17 11:56:06;;;;;;;4.50;1.27;;;;;;;;;;6769803;29;20106;-84
2021/05/17 11:59:28;;;;;;;2.20;1.10;;;;;;;;;;6795463;29;20036;-84
2021/05/17 12:02:53;;;;;;;6.20;1.23;;;;;;;;;;6796475;29;20033;-85
2021/05/17 12:06:13;;;;;;;4.25;1.60;;;;;;;;;;6766061;29;20032;-84
2021/05/17 12:09:38;;;;;;;3.58;1.08;;;;;;;;;;6768515;29;20124;-85
2021/05/17 12:12:59;;;;;;;4.28;1.25;;;;;;;;;;6781780;29;20092;-84
2021/05/17 12:16:26;;;;;;;1.45;1.00;;;;;;;;;;6786400;29;20069;-84
2021/05/17 12:19:52;;;;;;;6.40;1.10;;;;;;;;;;6769778;29;20043;-84
2021/05/17 12:23:13;;;;;;;3.90;1.08;;;;;;;;;;6775693;29;20115;-84
2021/05/17 12:26:52;;;;;;;4.88;1.20;;;;;;;;;;6784638;29;20057;-83
2021/05/17 12:33:43;;;;;;;1.75;1.02;;;;;;;;;;7626395;23;20063;-84
2021/05/17 12:37:04;;;;;;;2.47;1.20;;;;;;;;;;6799297;29;20039;-85
2021/05/17 12:40:30;;;;;;;1.55;1.02;;;;;;;;;;6774560;29;20165;-85
2021/05/17 12:43:50;;;;;;;3.67;1.20;;;;;;;;;;6798261;29;20466;-83
2021/05/17 12:47:13;;;;;;;4.38;1.13;;;;;;;;;;6792092;29;20056;-82
2021/05/17 12:50:34;;;;;;;2.00;1.13;;;;;;;;;;6802485;29;20038;-82
2021/05/17 12:54:09;;;;;;;3.55;1.08;;;;;;;;;;6827702;29;20047;-81
2021/05/17 12:57:44;;;;;;;4.60;1.00;;;;;;;;;;6801788;29;20035;-81
2021/05/17 13:01:14;;;;;;;2.83;1.08;;;;;;;;;;6804084;29;20047;-82
2021/05/17 13:04:35;;;;;;;4.95;0.90;;;;;;;;;;6808201;29;20038;-82
2021/05/17 13:07:58;;;;;;;2.17;0.90;;;;;;;;;;6796877;29;20478;-81
2021/05/17 13:11:21;;;;;;;3.78;1.30;;;;;;;;;;6793819;29;20035;-82
2021/05/17 13:14:43;;;;;;;7.22;1.02;;;;;;;;;;6808935;29;20031;-81
2021/05/17 13:18:11;;;;;;;3.20;1.00;;;;;;;;;;6796335;29;20031;-82
2021/05/17 13:32:20;;;;;;;4.40;1.00;;;;;;;;;;6776496;29;20340;-81
2021/05/17 13:35:41;;;;;;;5.57;1.10;;;;;;;;;;6803820;29;20034;-84
2021/05/17 13:39:02;;;;;;;3.45;1.00;;;;;;;;;;6800333;29;20032;-84
2021/05/17 13:42:23;;;;;;;2.53;1.13;;;;;;;;;;6802961;29;20051;-85
2021/05/17 13:45:44;;;;;;;10.80;1.23;;;;;;;;;;6800713;29;20363;-85
2021/05/17 13:49:05;;;;;;;2.00;0.90;;;;;;;;;;6802493;29;20050;-86
2021/05/17 13:52:25;;;;;;;7.70;1.08;;;;;;;;;;6798908;29;20111;-85
2021/05/17 13:55:47;;;;;;;4.75;0.88;;;;;;;;;;6799552;29;20086;-91
2021/05/17 13:59:09;;;;;;;6.40;1.25;;;;;;;;;;6776970;29;20401;-84
2021/05/17 14:02:31;;;;;;;4.22;1.10;;;;;;;;;;6795115;29;20036;-85
2021/05/17 14:05:51;;;;;;;2.50;1.33;;;;;;;;;;6802878;29;20028;-85
2021/05/17 14:09:18;;;;;;;1.90;1.08;;;;;;;;;;6787542;29;20115;-86
2021/05/17 14:12:40;;;;;;;3.97;1.27;;;;;;;;;;6789173;29;20131;-85
2021/05/17 14:16:01;;;;;;;5.15;1.00;;;;;;;;;;6798608;29;20036;-85
2021/05/17 14:19:26;;;;;;;4.75;1.17;;;;;;;;;;6794402;29;20038;-84
2021/05/17 14:22:47;;;;;;;5.43;1.17;;;;;;;;;;6796108;29;20032;-83
2021/05/17 14:26:08;;;;;;;2.33;0.90;;;;;;;;;;6801145;29;20035;-82
2021/05/17 14:29:29;;;;;;;1.92;0.90;;;;;;;;;;6806860;29;20030;-82
2021/05/17 14:32:50;;;;;;;3.17;1.10;;;;;;;;;;6811925;29;20122;-83
2021/05/17 14:36:11;;;;;;;1.15;0.80;;;;;;;;;;6808108;29;20107;-83
2021/05/17 14:39:32;;;;;;;6.43;1.00;;;;;;;;;;6790060;29;20038;-83
2021/05/17 14:42:53;;;;;;;2.80;1.20;;;;;;;;;;6792624;29;20027;-83
2021/05/17 14:46:15;;;;;;;3.70;1.02;;;;;;;;;;6819903;29;20028;-83
2021/05/17 14:49:35;;;;;;;4.72;1.00;;;;;;;;;;6819607;29;20038;-83
2021/05/17 14:52:56;;;;;;;5.78;1.00;;;;;;;;;;6823418;29;20106;-84
2021/05/17 14:56:18;;;;;;;1.88;0.85;;;;;;;;;;6823542;29;20066;-83
2021/05/17 14:59:42;;;;;;;4.68;1.10;;;;;;;;;;6809605;29;20043;-82
2021/05/17 15:03:03;;;;;;;4.63;1.40;;;;;;;;;;6810581;29;20074;-83
2021/05/17 15:06:25;;;;;;;1.90;0.77;;;;;;;;;;6809566;29;20390;-83
2021/05/17 15:09:45;;;;;;;2.38;1.08;;;;;;;;;;6803147;29;20455;-83
2021/05/17 15:13:06;;;;;;;2.75;1.02;;;;;;;;;;6797710;29;20039;-83
2021/05/17 15:16:28;;;;;;;3.17;1.00;;;;;;;;;;6797370;29;20040;-83
2021/05/17 15:19:49;;;;;;;3.40;1.25;;;;;;;;;;6818666;29;20034;-81
2021/05/17 15:23:23;;;;;;;1.67;0.90;;;;;;;;;;6808905;29;20031;-82
2021/05/17 15:26:45;;;;;;;3.13;0.73;;;;;;;;;;6813513;29;20035;-82
2021/05/17 15:30:11;;;;;;;4.70;1.38;;;;;;;;;;6800648;29;20424;-81
2021/05/17 15:33:31;;;;;;;1.98;0.80;;;;;;;;;;6808514;29;20051;-83
2021/05/17 15:36:52;;;;;;;1.33;0.82;;;;;;;;;;6805772;29;20379;-81
2021/05/17 15:40:16;;;;;;;3.10;0.75;;;;;;;;;;6803930;29;20102;-82
2021/05/17 15:43:36;;;;;;;1.20;0.77;;;;;;;;;;6795518;29;20039;-80
2021/05/17 15:46:57;;;;;;;1.33;0.85;;;;;;;;;;6794261;29;20032;-82
2021/05/17 15:50:18;;;;;;;2.47;0.80;;;;;;;;;;6796952;29;20028;-82
2021/05/17 15:53:38;;;;;;;4.15;1.20;;;;;;;;;;6789917;29;20119;-82
2021/05/17 15:56:59;;;;;;;2.38;0.82;;;;;;;;;;6796182;29;20374;-81
2021/05/17 16:00:20;;;;;;;1.30;0.90;;;;;;;;;;6791198;29;20071;-81
2021/05/17 16:03:43;;;;;;;1.40;0.90;;;;;;;;;;6783915;29;20501;-82
2021/05/17 16:07:03;;;;;;;1.00;0.70;;;;;;;;;;6795418;29;20031;-81
2021/05/17 16:10:24;;;;;;;1.58;0.70;;;;;;;;;;6799785;29;20119;-82
2021/05/17 16:24:12;;;;;;;19.73;0.95;;;;;;;;;;6808826;29;20068;-83
2021/05/17 16:27:33;;;;;;;1.85;1.20;;;;;;;;;;6803571;29;20123;-84
2021/05/17 16:30:53;;;;;;;7.10;1.13;;;;;;;;;;6791601;29;20067;-83
2021/05/17 16:34:14;;;;;;;3.45;1.45;;;;;;;;;;6786873;29;20071;-83
2021/05/17 16:37:34;;;;;;;2.60;1.58;;;;;;;;;;6808233;29;20434;-83
2021/05/17 16:40:54;;;;;;;3.08;1.25;;;;;;;;;;6805959;29;20043;-83
2021/05/17 16:44:16;;;;;;;2.13;0.93;;;;;;;;;;6808147;29;20032;-83
2021/05/17 16:47:37;;;;;;;4.25;1.10;;;;;;;;;;6801860;29;20032;-84
2021/05/17 16:50:58;;;;;;;1.02;0.80;;;;;;;;;;6801458;29;20040;-85
2021/05/17 16:54:26;;;;;;;2.35;0.82;;;;;;;;;;6794138;29;20066;-84
2021/05/17 16:57:48;;;;;;;3.17;1.00;;;;;;;;;;6805587;29;20031;-86
2021/05/17 17:01:08;;;;;;;0.95;0.70;;;;;;;;;;6809339;29;20028;-83
2021/05/17 17:04:29;;;;;;;3.25;0.90;;;;;;;;;;6813422;29;20116;-81
2021/05/17 17:07:56;;;;;;;0.65;0.65;;;;;;;;;;6816211;29;20070;-81
2021/05/17 17:11:16;;;;;;;3.20;0.80;;;;;;;;;;6813417;29;20466;-82
2021/05/17 17:14:37;;;;;;;1.27;0.80;;;;;;;;;;6813021;29;20054;-82
2021/05/17 17:17:57;;;;;;;2.85;0.90;;;;;;;;;;6812251;29;20028;-82
2021/05/17 17:21:19;;;;;;;3.47;1.17;;;;;;;;;;6809448;29;20027;-81
2021/05/17 17:24:43;;;;;;;1.40;1.00;;;;;;;;;;6803714;29;20370;-81
2021/05/17 17:28:03;;;;;;;1.83;1.05;;;;;;;;;;6811175;29;20427;-81
2021/05/17 17:31:25;;;;;;;1.85;0.70;;;;;;;;;;6809927;29;20474;-81
2021/05/17 17:34:46;;;;;;;7.72;1.13;;;;;;;;;;6814740;29;20478;-81
2021/05/17 17:38:06;;;;;;;3.10;1.02;;;;;;;;;;6816823;29;20026;-81
2021/05/17 17:41:27;;;;;;;2.72;1.00;;;;;;;;;;6794245;29;20106;-81
2021/05/17 17:44:47;;;;;;;5.00;1.15;;;;;;;;;;6814458;29;20039;-82
2021/05/17 17:48:08;;;;;;;1.27;0.80;;;;;;;;;;6807199;29;20079;-81
2021/05/17 17:51:37;;;;;;;2.85;1.10;;;;;;;;;;6823295;29;20044;-81
2021/05/17 17:54:57;;;;;;;4.07;0.90;;;;;;;;;;6813830;29;20028;-81
2021/05/17 17:58:18;;;;;;;4.07;1.17;;;;;;;;;;6790923;29;20078;-81
2021/05/17 18:01:39;;;;;;;2.17;1.02;;;;;;;;;;6805936;29;20024;-81
2021/05/17 18:04:59;;;;;;;3.10;1.17;;;;;;;;;;6822531;29;20047;-81
2021/05/17 18:08:19;;;;;;;1.02;0.85;;;;;;;;;;6802849;29;20110;-81
2021/05/17 18:11:40;;;;;;;1.98;0.80;;;;;;;;;;6783096;29;20058;-82
2021/05/17 18:15:01;;;;;;;2.42;0.82;;;;;;;;;;6810290;29;20437;-82
2021/05/17 18:18:21;;;;;;;2.90;1.05;;;;;;;;;;6811756;29;20043;-82
2021/05/17 18:21:42;;;;;;;5.68;1.20;;;;;;;;;;6806974;29;20094;-81
2021/05/17 18:25:03;;;;;;;4.47;1.20;;;;;;;;;;6809212;29;20110;-81
2021/05/17 18:28:24;;;;;;;4.72;1.20;;;;;;;;;;6809835;29;20481;-82
2021/05/17 18:38:28;;;;;;;6.30;1.48;;;;;;;;;;6807517;29;20040;-82
2021/05/17 18:41:48;;;;;;;2.47;0.90;;;;;;;;;;6794716;29;20036;-82
2021/05/17 18:45:29;;;;;;;2.70;1.20;;;;;;;;;;6806725;29;20103;-82
2021/05/17 18:48:53;;;;;;;2.50;0.80;;;;;;;;;;6798795;29;20024;-82
2021/05/17 18:52:14;;;;;;;2.78;0.90;;;;;;;;;;6792032;29;20032;-82
2021/05/17 18:55:35;;;;;;;3.60;1.02;;;;;;;;;;6792834;29;20036;-82
2021/05/17 18:58:55;;;;;;;4.20;1.10;;;;;;;;;;6789171;29;20115;-82
2021/05/17 19:02:16;;;;;;;6.20;1.02;;;;;;;;;;6800170;29;20027;-82
2021/05/17 19:05:36;;;;;;;4.10;1.10;;;;;;;;;;6792107;29;20036;-82
2021/05/17 19:09:01;;;;;;;5.82;1.08;;;;;;;;;;6786654;29;20294;-82
2021/05/17 19:12:23;;;;;;;2.63;0.80;;;;;;;;;;6796589;29;20043;-82
2021/05/17 19:15:44;;;;;;;5.57;1.20;;;;;;;;;;6794194;29;20040;-82
2021/05/17 19:19:05;;;;;;;8.38;1.30;;;;;;;;;;6798949;29;20095;-82
2021/05/17 19:22:28;;;;;;;4.35;1.20;;;;;;;;;;6795325;29;20075;-82
2021/05/17 19:25:52;;;;;;;4.03;1.00;;;;;;;;;;6791125;29;20027;-82
2021/05/17 19:29:14;;;;;;;10.15;1.00;;;;;;;;;;6803330;29;20042;-82
2021/05/17 19:32:35;;;;;;;6.15;0.90;;;;;;;;;;6789121;29;20054;-82
2021/05/17 19:35:55;;;;;;;9.60;1.45;;;;;;;;;;6788670;29;20025;-82
2021/05/17 19:39:16;;;;;;;3.42;1.13;;;;;;;;;;6796057;29;20034;-82
2021/05/17 19:42:38;;;;;;;1.05;0.60;;;;;;;;;;6790756;29;20024;-82
2021/05/17 19:45:59;;;;;;;2.58;1.00;;;;;;;;;;6799341;29;20036;-82
2021/05/17 19:49:20;;;;;;;3.70;0.85;;;;;;;;;;6789820;29;20028;-82
2021/05/17 19:52:41;;;;;;;3.70;0.95;;;;;;;;;;6796461;29;20427;-82
2021/05/17 19:56:01;;;;;;;1.88;0.95;;;;;;;;;;6801643;29;20036;-82
2021/05/17 19:59:22;;;;;;;4.18;1.20;;;;;;;;;;6806502;29;20119;-82
2021/05/17 20:02:43;;;;;;;2.53;0.63;;;;;;;;;;6809140;29;20039;-82
2021/05/17 20:06:04;;;;;;;1.65;1.02;;;;;;;;;;6792320;29;20422;-82
2021/05/17 20:09:24;;;;;;;3.13;1.30;;;;;;;;;;6805915;29;20032;-82
2021/05/17 20:12:45;;;;;;;6.63;1.00;;;;;;;;;;6808039;29;20143;-82
2021/05/17 20:16:05;;;;;;;4.72;1.40;;;;;;;;;;6805102;29;20035;-83
2021/05/17 20:19:27;;;;;;;1.80;0.88;;;;;;;;;;6789769;29;20035;-83
2021/05/17 20:22:48;;;;;;;3.42;1.00;;;;;;;;;;6790200;29;20032;-83
2021/05/17 20:26:10;;;;;;;3.50;1.10;;;;;;;;;;6796091;29;20039;-83
2021/05/17 20:29:30;;;;;;;1.80;0.95;;;;;;;;;;6805516;29;20036;-83
2021/05/17 20:32:55;;;;;;;6.95;1.27;;;;;;;;;;6807397;29;20044;-83
2021/05/17 20:36:16;;;;;;;2.30;0.95;;;;;;;;;;6810753;29;20031;-83
2021/05/17 20:39:38;;;;;;;7.43;1.33;;;;;;;;;;6813264;29;20382;-83
2021/05/17 20:43:03;;;;;;;5.38;1.13;;;;;;;;;;6812604;29;20035;-83
2021/05/17 20:46:27;;;;;;;2.92;1.05;;;;;;;;;;6812098;29;20084;-83
2021/05/17 20:49:48;;;;;;;6.13;1.20;;;;;;;;;;6809184;29;20083;-83
2021/05/17 20:53:09;;;;;;;2.97;1.15;;;;;;;;;;6812649;29;20031;-84
2021/05/17 20:56:29;;;;;;;4.20;1.33;;;;;;;;;;6814732;29;20043;-83
2021/05/17 20:59:50;;;;;;;6.40;1.52;;;;;;;;;;6833502;29;20042;-82
2021/05/17 21:03:10;;;;;;;6.85;0.98;;;;;;;;;;6812718;29;20063;-82
2021/05/17 21:06:35;;;;;;;2.17;1.10;;;;;;;;;;6813718;29;20087;-82